createdAt,value
2022-10-16T00:01:22.185Z,14.7
2022-10-16T00:07:22.306Z,14.4
2022-10-16T00:13:22.185Z,14.6
2022-10-16T00:19:22.216Z,14.7
2022-10-16T00:25:22.191Z,14.6
2022-10-16T00:31:22.170Z,14.6
2022-10-16T00:37:22.178Z,14.5
2022-10-16T00:43:22.212Z,14.5
2022-10-16T00:49:22.181Z,14.5
2022-10-16T00:55:22.181Z,14.4
2022-10-16T01:01:22.292Z,14.4
2022-10-16T01:07:22.330Z,14.5
2022-10-16T01:13:22.185Z,14.4
2022-10-16T01:19:22.230Z,14.4
2022-10-16T01:25:22.169Z,14.5
2022-10-16T01:31:22.184Z,14.5
2022-10-16T01:37:22.203Z,14.4
2022-10-16T01:43:22.176Z,14.4
2022-10-16T01:49:22.209Z,14.2
2022-10-16T01:55:22.201Z,14
2022-10-16T02:01:22.178Z,14.1
2022-10-16T02:07:22.194Z,13.9
2022-10-16T02:13:22.209Z,13.8
2022-10-16T02:19:22.194Z,13.9
2022-10-16T02:25:22.178Z,13.9
2022-10-16T02:31:22.203Z,13.8
2022-10-16T02:37:22.195Z,14
2022-10-16T02:43:22.188Z,13.9
2022-10-16T02:49:22.249Z,13.9
2022-10-16T02:55:22.218Z,13.9
2022-10-16T03:01:22.297Z,13.9
2022-10-16T03:07:22.301Z,13.9
2022-10-16T03:13:22.213Z,13.9
2022-10-16T03:19:22.195Z,13.9
2022-10-16T03:25:22.229Z,14
2022-10-16T03:31:22.181Z,14.1
2022-10-16T03:37:22.185Z,14.2
2022-10-16T03:43:22.207Z,14.1
2022-10-16T03:49:22.165Z,13.9
2022-10-16T03:55:22.203Z,13.9
2022-10-16T04:01:22.247Z,13.8
2022-10-16T04:07:22.226Z,14
2022-10-16T04:13:22.205Z,14.2
2022-10-16T04:19:22.206Z,14.1
2022-10-16T04:25:22.195Z,14
2022-10-16T04:31:22.209Z,13.9
2022-10-16T04:37:22.193Z,14.1
2022-10-16T04:43:22.249Z,14.1
2022-10-16T04:49:22.189Z,14
2022-10-16T04:55:22.239Z,14.1
2022-10-16T05:01:22.194Z,14.2
2022-10-16T05:07:22.219Z,13.9
2022-10-16T05:13:22.210Z,14.2
2022-10-16T05:19:27.379Z,14
2022-10-16T05:25:22.205Z,14
2022-10-16T05:31:22.232Z,14
2022-10-16T05:37:22.236Z,14
2022-10-16T05:43:22.193Z,14.1
2022-10-16T05:49:22.225Z,14.2
2022-10-16T05:55:22.196Z,14.1
2022-10-16T06:01:22.589Z,14.1
2022-10-16T06:07:22.233Z,13.9
2022-10-16T06:13:22.186Z,14
2022-10-16T06:19:22.198Z,14.1
2022-10-16T06:25:22.259Z,14.1
2022-10-16T06:31:22.216Z,14.1
2022-10-16T06:37:22.196Z,14.2
2022-10-16T06:43:22.217Z,14.3
2022-10-16T06:49:22.216Z,14.4
2022-10-16T06:55:22.191Z,14.5
2022-10-16T07:01:22.247Z,14.8
2022-10-16T07:07:22.188Z,15
2022-10-16T07:13:22.191Z,15.2
2022-10-16T07:19:22.223Z,15.7
2022-10-16T07:25:22.197Z,15.7
2022-10-16T07:31:22.225Z,15.7
2022-10-16T07:37:22.232Z,15.8
2022-10-16T07:43:22.213Z,16.7
2022-10-16T07:49:22.200Z,16
2022-10-16T07:55:22.247Z,15.8
2022-10-16T08:01:22.246Z,16
2022-10-16T08:07:22.202Z,16.6
2022-10-16T08:13:22.221Z,16.2
2022-10-16T08:19:22.448Z,16
2022-10-16T08:25:22.221Z,15.8
2022-10-16T08:31:22.254Z,16
2022-10-16T08:37:22.215Z,15.8
2022-10-16T08:43:22.209Z,16.6
2022-10-16T08:49:22.273Z,15.7
2022-10-16T08:55:22.278Z,15.5
2022-10-16T09:01:22.442Z,14.7
2022-10-16T09:07:22.247Z,14.9
2022-10-16T09:13:22.231Z,15
2022-10-16T09:19:22.252Z,15.1
2022-10-16T09:25:22.257Z,15.2
2022-10-16T09:31:22.233Z,14.8
2022-10-16T09:37:22.211Z,15
2022-10-16T09:43:22.261Z,15
2022-10-16T09:49:22.232Z,15.5
2022-10-16T09:55:22.249Z,15.2
2022-10-16T10:01:22.271Z,14
2022-10-16T10:07:22.245Z,15.2
2022-10-16T10:13:22.232Z,14.6
2022-10-16T10:19:22.391Z,14.3
2022-10-16T10:25:22.246Z,15.6
2022-10-16T10:31:22.234Z,13.3
2022-10-16T10:37:23.271Z,13.9
2022-10-16T10:43:22.251Z,12.5
2022-10-16T10:49:22.261Z,13.8
2022-10-16T10:55:22.285Z,13.4
2022-10-16T11:01:22.294Z,12.8
2022-10-16T11:07:22.285Z,14
2022-10-16T11:13:22.309Z,13.6
2022-10-16T11:19:22.282Z,13.5
2022-10-16T11:25:22.275Z,13.8
2022-10-16T11:31:22.325Z,13.9
2022-10-16T11:37:29.735Z,13.6
2022-10-16T11:43:22.301Z,14.4
2022-10-16T11:49:22.345Z,13.6
2022-10-16T11:55:22.264Z,14
2022-10-16T12:01:22.365Z,13.3
2022-10-16T12:07:22.323Z,13.9
2022-10-16T12:13:22.273Z,13.2
2022-10-16T12:19:22.285Z,13.9
2022-10-16T12:25:22.297Z,13.1
2022-10-16T12:31:22.303Z,12.8
2022-10-16T12:37:35.248Z,13
2022-10-16T12:43:26.090Z,12.9
2022-10-16T12:49:22.297Z,13.4
2022-10-16T12:55:22.274Z,13.1
2022-10-16T13:01:22.317Z,13.5
2022-10-16T13:07:22.317Z,13.3
2022-10-16T13:13:22.317Z,13.2
2022-10-16T13:19:22.325Z,13.2
2022-10-16T13:25:22.306Z,13.3
2022-10-16T13:31:22.285Z,13.5
2022-10-16T13:37:41.233Z,13.8
2022-10-16T13:43:22.287Z,13.7
2022-10-16T13:49:22.317Z,14.2
2022-10-16T13:55:22.359Z,14.1
2022-10-16T14:01:22.355Z,14.1
2022-10-16T14:07:22.346Z,14.4
2022-10-16T14:13:22.331Z,14.7
2022-10-16T14:19:22.309Z,15.1
2022-10-16T14:25:22.289Z,15
2022-10-16T14:31:22.344Z,15.4
2022-10-16T14:37:28.023Z,15.1
2022-10-16T14:43:22.331Z,15.3
2022-10-16T14:49:22.371Z,15.3
2022-10-16T14:55:22.305Z,15.1
2022-10-16T15:01:22.394Z,15.4
2022-10-16T15:07:22.344Z,15.5
2022-10-16T15:13:22.304Z,15.6
2022-10-16T15:19:22.324Z,15.8
2022-10-16T15:25:22.363Z,15.7
2022-10-16T15:31:22.324Z,16
2022-10-16T15:37:22.316Z,15.9
2022-10-16T15:43:22.364Z,16
2022-10-16T15:49:22.327Z,16
2022-10-16T15:55:22.319Z,16.3
2022-10-16T16:01:22.431Z,16.5
2022-10-16T16:07:22.325Z,16.5
2022-10-16T16:13:22.339Z,16.7
2022-10-16T16:19:22.341Z,16.8
2022-10-16T16:25:22.337Z,16.9
2022-10-16T16:31:22.360Z,16.9
2022-10-16T16:37:22.351Z,16.9
2022-10-16T16:43:22.319Z,17
2022-10-16T16:49:22.347Z,17
2022-10-16T16:55:22.381Z,17
2022-10-16T17:01:22.520Z,17
2022-10-16T17:07:24.299Z,17.1
2022-10-16T17:13:22.366Z,17
2022-10-16T17:19:22.335Z,17.2
2022-10-16T17:25:23.820Z,17.1
2022-10-16T17:31:22.355Z,17.1
2022-10-16T17:37:22.339Z,17.1
2022-10-16T17:43:22.369Z,17.2
2022-10-16T17:49:22.436Z,17.2
2022-10-16T17:55:26.361Z,17.2
2022-10-16T18:01:22.420Z,17.2
2022-10-16T18:07:22.363Z,17.3
2022-10-16T18:13:22.333Z,17.3
2022-10-16T18:19:22.363Z,17.4
2022-10-16T18:25:22.387Z,17.5
2022-10-16T18:31:22.356Z,17.5
2022-10-16T18:37:22.338Z,17.5
2022-10-16T18:43:22.404Z,17.5
2022-10-16T18:49:22.367Z,17.2
2022-10-16T18:55:22.367Z,17.2
2022-10-16T19:01:22.467Z,17.1
2022-10-16T19:07:22.364Z,17.1
2022-10-16T19:13:22.393Z,17.3
2022-10-16T19:19:22.389Z,17.3
2022-10-16T19:25:22.395Z,17.2
2022-10-16T19:31:22.358Z,17.2
2022-10-16T19:37:22.404Z,17.2
2022-10-16T19:43:22.375Z,17.1
2022-10-16T19:49:22.374Z,17.1
2022-10-16T19:55:22.394Z,17
2022-10-16T20:01:22.431Z,16.9
2022-10-16T20:07:22.376Z,17
2022-10-16T20:13:22.405Z,17
2022-10-16T20:19:22.358Z,17
2022-10-16T20:25:22.462Z,16.9
2022-10-16T20:31:22.392Z,16.9
2022-10-16T20:37:22.354Z,16.7
2022-10-16T20:43:22.380Z,16.8
2022-10-16T20:49:39.178Z,16.7
2022-10-16T20:55:22.414Z,16.6
2022-10-16T21:01:22.429Z,16.6
2022-10-16T21:07:22.390Z,16.5
2022-10-16T21:13:24.990Z,16.5
2022-10-16T21:19:22.397Z,16.5
2022-10-16T21:25:22.398Z,16.4
2022-10-16T21:31:22.382Z,16.4
2022-10-16T21:37:22.374Z,16.4
2022-10-16T21:43:22.409Z,16.5
2022-10-16T21:49:22.391Z,16.5
2022-10-16T21:55:22.436Z,16.4
2022-10-16T22:01:22.467Z,16.4
2022-10-16T22:07:22.425Z,16.4
2022-10-16T22:13:22.399Z,16.4
2022-10-16T22:19:22.431Z,16.4
2022-10-16T22:25:22.384Z,16.4
2022-10-16T22:31:22.380Z,16.4
2022-10-16T22:37:22.406Z,16.4
2022-10-16T22:43:22.391Z,16.5
2022-10-16T22:49:22.406Z,16.5
2022-10-16T22:55:22.393Z,16.5
2022-10-16T23:01:22.419Z,16.5
2022-10-16T23:07:22.395Z,16.4
2022-10-16T23:13:22.399Z,16.3
2022-10-16T23:19:22.380Z,16.3
2022-10-16T23:25:22.388Z,16.4
2022-10-16T23:31:22.523Z,16.3
2022-10-16T23:37:22.389Z,16.4
2022-10-16T23:43:22.393Z,16.5
2022-10-16T23:49:22.415Z,16.5
2022-10-16T23:55:22.488Z,16.5
